Time;durP1;ratioP1;P1;durP2;ratioP2;P2;SDS_P1;SDS_P2;PMS_P1;PMS_P2;Temp;Humidity;BMP_temperature;BMP_pressure;BME280_temperature;BME280_humidity;BME280_pressure;Samples;Min_cycle;Max_cycle;Signal;HPM_P1;HPM_P2
2023/09/20 00:00:11;;;;;;;3.77;3.10;;;;;;;19.28;53.71;97395.44;5040191;28;20824;-69
2023/09/20 00:02:39;;;;;;;3.00;2.37;;;;;;;19.25;54.12;97395.06;5034637;28;20492;-69
2023/09/20 00:05:12;;;;;;;3.00;2.70;;;;;;;19.17;54.27;97394.22;5030137;28;20446;-70
2023/09/20 00:07:38;;;;;;;4.70;2.77;;;;;;;19.16;54.57;97391.75;4982622;28;21060;-70
2023/09/20 00:10:04;;;;;;;3.00;2.70;;;;;;;19.06;54.63;97397.47;4987992;28;20918;-71
2023/09/20 00:12:30;;;;;;;4.03;2.53;;;;;;;19.07;54.72;97393.78;5017739;28;20491;-70
2023/09/20 00:14:55;;;;;;;3.40;2.73;;;;;;;19.07;54.65;97388.47;5020694;28;20996;-71
2023/09/20 00:17:21;;;;;;;3.20;2.30;;;;;;;19.07;54.85;97399.09;5042335;28;20214;-70
2023/09/20 00:19:46;;;;;;;4.23;2.40;;;;;;;19.11;54.64;97400.34;5030384;28;20196;-70
2023/09/20 00:22:13;;;;;;;3.87;2.10;;;;;;;19.11;54.28;97403.00;5040979;28;20188;-71
2023/09/20 00:24:38;;;;;;;2.40;1.97;;;;;;;19.09;54.42;97391.75;5023908;28;20214;-70
2023/09/20 00:27:04;;;;;;;3.07;2.30;;;;;;;19.10;54.26;97393.41;5044912;28;20434;-71
2023/09/20 00:29:29;;;;;;;3.50;2.10;;;;;;;19.04;54.46;97388.88;5042308;28;20227;-70
2023/09/20 00:31:55;;;;;;;6.43;2.60;;;;;;;19.02;54.41;97386.44;5030671;28;20246;-69
2023/09/20 00:34:21;;;;;;;3.83;2.50;;;;;;;19.01;54.58;97384.00;5025486;28;20222;-71
2023/09/20 00:36:46;;;;;;;10.07;2.90;;;;;;;18.98;54.58;97379.06;5021987;28;20195;-71
2023/09/20 00:39:13;;;;;;;5.63;2.43;;;;;;;18.96;54.73;97381.13;5035617;28;20672;-70
2023/09/20 00:41:38;;;;;;;4.10;2.33;;;;;;;18.93;54.64;97381.47;5039121;28;20672;-71
2023/09/20 00:44:04;;;;;;;3.10;2.50;;;;;;;18.91;54.89;97376.38;5030221;28;20453;-71
2023/09/20 00:46:31;;;;;;;3.33;2.60;;;;;;;18.90;55.00;97376.59;5030458;28;20219;-71
2023/09/20 00:48:57;;;;;;;3.50;2.50;;;;;;;18.87;55.17;97378.63;5038998;28;20496;-70
2023/09/20 00:51:23;;;;;;;3.03;2.50;;;;;;;18.88;55.04;97374.94;5039082;28;20437;-70
2023/09/20 00:53:54;;;;;;;6.57;4.10;;;;;;;18.92;54.85;97369.22;5011809;28;20294;-71
2023/09/20 00:56:19;;;;;;;5.70;2.87;;;;;;;18.95;55.08;97364.38;5043758;28;20472;-71
2023/09/20 00:58:45;;;;;;;3.93;2.20;;;;;;;18.95;54.95;97368.84;5041679;28;20491;-70
2023/09/20 01:01:11;;;;;;;4.30;2.37;;;;;;;18.93;54.79;97363.72;5038884;28;20873;-69
2023/09/20 01:03:39;;;;;;;3.47;2.60;;;;;;;18.90;54.92;97361.47;5013398;28;20295;-69
2023/09/20 01:06:05;;;;;;;2.20;2.00;;;;;;;18.90;54.84;97360.66;5031835;28;20438;-70
2023/09/20 01:08:34;;;;;;;4.70;2.40;;;;;;;18.88;54.98;97358.19;5017441;28;20468;-71
2023/09/20 01:11:00;;;;;;;3.63;2.47;;;;;;;18.87;55.13;97357.38;5040032;28;20439;-71
2023/09/20 01:13:26;;;;;;;3.60;2.07;;;;;;;18.84;55.05;97357.78;5019973;28;20465;-71
2023/09/20 01:15:52;;;;;;;3.63;1.90;;;;;;;18.79;55.14;97354.91;5032220;28;20456;-70
2023/09/20 01:18:18;;;;;;;3.80;2.40;;;;;;;18.75;55.23;97364.31;5042292;28;20821;-70
2023/09/20 01:20:43;;;;;;;4.33;2.30;;;;;;;18.72;55.59;97362.03;5037880;28;20438;-71
2023/09/20 01:23:09;;;;;;;4.40;2.40;;;;;;;18.65;55.31;97358.56;5032371;28;20696;-71
2023/09/20 01:25:36;;;;;;;2.63;2.13;;;;;;;18.60;55.57;97367.09;5036583;28;20225;-70
2023/09/20 01:28:03;;;;;;;4.20;2.57;;;;;;;18.65;55.51;97353.25;5033989;28;20187;-70
2023/09/20 01:30:31;;;;;;;4.07;2.43;;;;;;;18.65;55.62;97358.56;5028533;28;20429;-71
2023/09/20 01:33:03;;;;;;;2.73;2.10;;;;;;;18.67;55.59;97353.84;5026113;28;20935;-71
2023/09/20 01:35:30;;;;;;;3.83;2.13;;;;;;;18.62;55.47;97354.47;5027935;28;20456;-69
2023/09/20 01:37:56;;;;;;;5.03;2.00;;;;;;;18.60;55.42;97361.00;5040447;28;20463;-71
2023/09/20 01:40:25;;;;;;;3.33;2.23;;;;;;;18.56;55.97;97355.28;5042885;28;20851;-70
2023/09/20 01:42:56;;;;;;;2.63;1.80;;;;;;;18.54;55.79;97357.31;5033587;28;20851;-71
2023/09/20 01:45:22;;;;;;;3.57;2.23;;;;;;;18.50;56.04;97364.00;5032996;28;20450;-70
2023/09/20 01:47:52;;;;;;;3.93;2.20;;;;;;;18.49;55.98;97360.56;5022168;28;20813;-71
2023/09/20 01:50:21;;;;;;;2.27;2.07;;;;;;;18.55;55.93;97357.09;5042000;28;20431;-70
2023/09/20 01:52:48;;;;;;;3.63;1.90;;;;;;;18.54;55.99;97347.50;5034289;28;20558;-70
2023/09/20 01:55:15;;;;;;;2.20;1.97;;;;;;;18.54;55.97;97347.50;5039463;28;20441;-69
2023/09/20 01:57:45;;;;;;;3.43;1.90;;;;;;;18.54;55.71;97347.50;5018601;28;20943;-71
2023/09/20 02:00:32;;;;;;;2.90;2.27;;;;;;;18.51;55.67;97347.09;5046121;28;20429;-71
2023/09/20 02:03:00;;;;;;;3.27;2.27;;;;;;;18.48;55.75;97348.31;5026167;28;20461;-70
2023/09/20 02:05:27;;;;;;;4.30;2.37;;;;;;;18.49;55.60;97346.47;5019990;28;20451;-71
2023/09/20 02:07:54;;;;;;;2.70;2.40;;;;;;;18.44;55.99;97346.25;5031314;28;20548;-71
2023/09/20 02:10:19;;;;;;;3.30;2.10;;;;;;;18.40;56.03;97345.81;5037333;28;20446;-70
2023/09/20 02:12:56;;;;;;;4.70;2.77;;;;;;;18.39;56.22;97341.53;4998914;28;20462;-71
2023/09/20 02:15:24;;;;;;;2.37;2.10;;;;;;;18.38;56.13;97342.56;5046930;28;20206;-70
2023/09/20 02:17:50;;;;;;;2.83;2.23;;;;;;;18.36;56.27;97344.59;5040782;28;20430;-71
2023/09/20 02:20:19;;;;;;;4.97;2.33;;;;;;;18.36;56.13;97340.09;5047010;28;20457;-71
2023/09/20 02:22:50;;;;;;;9.43;2.43;;;;;;;18.30;56.43;97337.41;5041510;28;20429;-71
2023/09/20 02:25:20;;;;;;;2.97;2.23;;;;;;;18.26;56.48;97335.19;5042439;28;20458;-71
2023/09/20 02:27:52;;;;;;;1.67;1.57;;;;;;;18.29;56.48;97336.59;5038872;28;20441;-71
2023/09/20 02:30:24;;;;;;;2.40;2.20;;;;;;;18.32;56.40;97335.38;5039778;28;20419;-71
2023/09/20 02:32:55;;;;;;;3.40;2.10;;;;;;;18.33;56.79;97334.38;5030285;28;20559;-72
2023/09/20 02:35:21;;;;;;;2.97;2.00;;;;;;;18.27;56.58;97335.97;5015345;28;21066;-71
2023/09/20 02:37:47;;;;;;;4.90;2.03;;;;;;;18.22;56.37;97339.22;5047021;28;20437;-71
2023/09/20 02:40:14;;;;;;;2.63;2.40;;;;;;;18.18;56.60;97337.97;5029392;28;20504;-70
2023/09/20 02:42:44;;;;;;;2.30;2.10;;;;;;;18.20;56.59;97337.81;5042813;28;21084;-70
2023/09/20 02:45:12;;;;;;;4.47;2.40;;;;;;;18.23;56.58;97332.91;5042807;28;20452;-70
2023/09/20 02:47:40;;;;;;;2.33;2.03;;;;;;;18.21;56.61;97339.44;5012817;28;20453;-70
2023/09/20 02:50:10;;;;;;;3.30;2.33;;;;;;;18.24;56.55;97337.22;5021853;28;20433;-70
2023/09/20 02:52:36;;;;;;;3.90;2.40;;;;;;;18.27;56.75;97343.94;5037574;28;20453;-70
2023/09/20 02:55:06;;;;;;;2.83;1.90;;;;;;;18.26;56.54;97335.19;5042514;28;20445;-70
2023/09/20 02:57:32;;;;;;;2.33;1.90;;;;;;;18.22;56.56;97333.09;5031040;28;20238;-69
2023/09/20 02:59:59;;;;;;;1.70;1.43;;;;;;;18.25;56.56;97333.53;5043096;28;20496;-70
2023/09/20 03:02:24;;;;;;;3.10;2.00;;;;;;;18.25;56.57;97328.22;5021252;28;20214;-70
2023/09/20 03:04:53;;;;;;;2.60;2.03;;;;;;;18.11;56.79;97323.88;5047850;28;20465;-70
2023/09/20 03:07:20;;;;;;;4.43;2.07;;;;;;;18.11;56.82;97337.16;5004990;28;20180;-69
2023/09/20 03:09:46;;;;;;;2.37;2.00;;;;;;;18.14;56.71;97330.63;5037160;28;20445;-69
2023/09/20 03:12:13;;;;;;;3.43;2.13;;;;;;;18.15;56.59;97332.25;5038681;28;20470;-71
2023/09/20 03:14:38;;;;;;;2.23;2.03;;;;;;;18.09;56.70;97323.25;5004205;28;20294;-71
2023/09/20 03:17:04;;;;;;;2.10;1.90;;;;;;;18.13;56.39;97323.69;5030720;28;21025;-70
2023/09/20 03:19:31;;;;;;;3.60;2.17;;;;;;;18.07;56.70;97323.47;5041922;28;20700;-70
2023/09/20 03:21:57;;;;;;;2.23;2.03;;;;;;;18.04;56.92;97317.72;5016670;28;20192;-71
2023/09/20 03:24:23;;;;;;;2.47;1.90;;;;;;;17.99;56.95;97313.00;5039533;28;20876;-70
2023/09/20 03:26:51;;;;;;;3.77;1.90;;;;;;;18.03;57.24;97318.72;5028628;28;20431;-69
2023/09/20 03:29:18;;;;;;;3.93;2.20;;;;;;;18.05;56.89;97311.41;5039276;28;20188;-70
2023/09/20 03:31:44;;;;;;;1.87;1.70;;;;;;;18.05;57.06;97311.41;5036195;28;20468;-70
2023/09/20 03:34:11;;;;;;;4.53;2.13;;;;;;;18.04;56.73;97307.13;5020636;28;20537;-70
2023/09/20 03:36:38;;;;;;;6.13;2.43;;;;;;;18.00;56.63;97305.91;5014232;28;20438;-71
2023/09/20 03:39:04;;;;;;;3.50;2.30;;;;;;;17.95;56.74;97301.97;5037700;28;20426;-71
2023/09/20 03:41:29;;;;;;;3.57;2.43;;;;;;;17.94;57.08;97296.88;5037955;28;20438;-72
2023/09/20 03:43:56;;;;;;;2.67;2.27;;;;;;;17.91;57.18;97299.91;5037806;28;20456;-69
2023/09/20 03:46:21;;;;;;;2.30;2.07;;;;;;;17.89;57.08;97292.16;5028953;28;20196;-71
2023/09/20 03:48:47;;;;;;;3.90;2.20;;;;;;;17.92;57.19;97296.25;5034801;28;20529;-69
2023/09/20 03:51:16;;;;;;;3.33;2.17;;;;;;;17.93;56.97;97288.06;5044441;28;20688;-71
2023/09/20 03:53:43;;;;;;;3.47;2.37;;;;;;;17.95;56.76;97295.84;5033668;28;20225;-70
2023/09/20 03:56:08;;;;;;;3.07;1.97;;;;;;;17.92;56.72;97294.38;5043147;28;20458;-71
2023/09/20 03:58:34;;;;;;;2.27;2.07;;;;;;;17.86;56.88;97286.41;5037547;28;20435;-71
2023/09/20 04:01:02;;;;;;;2.53;2.30;;;;;;;17.87;56.89;97282.75;5028268;28;20207;-71
2023/09/20 04:03:28;;;;;;;5.60;2.13;;;;;;;17.88;56.93;97281.72;5035667;28;20430;-70
2023/09/20 04:05:56;;;;;;;3.80;2.13;;;;;;;17.85;57.13;97285.59;5042093;28;20454;-70
2023/09/20 04:08:22;;;;;;;2.67;2.17;;;;;;;17.85;57.11;97282.94;5037330;28;20563;-71
2023/09/20 04:10:47;;;;;;;3.97;2.10;;;;;;;17.81;57.21;97284.34;5027618;28;20491;-71
2023/09/20 04:13:14;;;;;;;3.73;2.43;;;;;;;17.76;57.36;97287.59;5038133;28;20345;-71
2023/09/20 04:15:42;;;;;;;3.20;2.23;;;;;;;17.79;56.89;97286.38;5042388;28;20585;-71
2023/09/20 04:18:08;;;;;;;3.40;2.43;;;;;;;17.77;57.38;97291.06;5023326;28;20441;-70
2023/09/20 04:20:33;;;;;;;3.20;2.47;;;;;;;17.76;57.10;97286.78;5038146;28;20450;-70
2023/09/20 04:22:59;;;;;;;6.87;3.07;;;;;;;17.72;57.19;97288.19;5035070;28;20192;-71
2023/09/20 04:25:24;;;;;;;2.50;2.30;;;;;;;17.73;57.19;97287.19;5041033;28;20295;-70
2023/09/20 04:27:50;;;;;;;3.03;2.40;;;;;;;17.70;57.20;97287.56;5032434;28;20334;-70
2023/09/20 04:30:17;;;;;;;3.00;2.13;;;;;;;17.64;57.47;97279.38;5014278;28;20242;-71
2023/09/20 04:32:43;;;;;;;3.40;2.43;;;;;;;17.61;57.63;97271.84;5038245;28;20221;-71
2023/09/20 04:35:09;;;;;;;2.70;2.33;;;;;;;17.59;57.75;97276.50;5036448;28;20450;-71
2023/09/20 04:37:34;;;;;;;6.37;2.53;;;;;;;17.62;57.84;97277.94;5030168;28;20653;-71
2023/09/20 04:40:00;;;;;;;6.90;2.77;;;;;;;17.58;57.74;97272.22;5033796;28;20613;-71
2023/09/20 04:42:27;;;;;;;3.30;2.57;;;;;;;17.58;57.93;97274.88;5031716;28;20731;-71
2023/09/20 04:44:53;;;;;;;2.97;2.43;;;;;;;17.59;58.32;97273.00;5025991;28;20253;-70
2023/09/20 04:47:18;;;;;;;4.50;2.20;;;;;;;17.56;57.82;97268.94;5036267;28;20430;-71
2023/09/20 04:49:44;;;;;;;4.70;2.47;;;;;;;17.57;58.11;97267.13;5031876;28;20226;-70
2023/09/20 04:52:11;;;;;;;3.23;2.40;;;;;;;17.54;58.16;97278.91;5033176;28;20772;-70
2023/09/20 04:54:37;;;;;;;3.70;2.33;;;;;;;17.54;58.13;97267.50;5027947;28;20222;-70
2023/09/20 04:57:04;;;;;;;6.60;2.97;;;;;;;17.55;57.83;97264.66;5044084;28;20922;-70
2023/09/20 04:59:30;;;;;;;2.87;2.57;;;;;;;17.56;57.98;97271.59;5032345;28;20438;-70
2023/09/20 05:01:56;;;;;;;3.70;2.50;;;;;;;17.50;58.06;97270.53;5044283;28;20441;-71
2023/09/20 05:04:21;;;;;;;4.03;2.60;;;;;;;17.50;58.09;97277.69;5022502;28;20511;-71
2023/09/20 05:06:47;;;;;;;3.10;2.73;;;;;;;17.52;57.98;97274.81;5029837;28;20198;-70
2023/09/20 05:09:13;;;;;;;6.30;2.90;;;;;;;17.51;57.69;97274.03;5035416;28;20192;-70
2023/09/20 05:11:38;;;;;;;7.27;2.80;;;;;;;17.46;57.98;97268.47;5017637;28;20198;-71
2023/09/20 05:14:07;;;;;;;8.67;2.67;;;;;;;17.41;58.09;97271.72;5037473;28;20671;-71
2023/09/20 05:16:32;;;;;;;3.77;2.90;;;;;;;17.40;58.24;97274.53;5039448;28;20183;-70
2023/09/20 05:18:58;;;;;;;4.13;2.70;;;;;;;17.47;58.27;97267.47;5025668;28;20474;-71
2023/09/20 05:21:24;;;;;;;4.80;3.07;;;;;;;17.53;58.18;97263.22;5007981;28;20245;-71
2023/09/20 05:23:49;;;;;;;2.70;2.40;;;;;;;17.50;58.45;97267.88;5035664;28;20183;-72
2023/09/20 05:26:15;;;;;;;5.03;2.60;;;;;;;17.55;58.39;97274.44;5042758;28;20195;-70
2023/09/20 05:28:40;;;;;;;3.57;2.50;;;;;;;17.60;58.27;97272.00;5027435;28;20282;-71
2023/09/20 05:31:06;;;;;;;2.90;2.67;;;;;;;17.60;58.35;97278.13;5025937;28;20247;-69
2023/09/20 05:33:32;;;;;;;5.00;2.90;;;;;;;17.64;57.99;97267.97;5028385;28;20211;-70
2023/09/20 05:35:58;;;;;;;3.17;2.70;;;;;;;17.63;58.18;97271.63;5034871;28;20642;-69
2023/09/20 05:38:26;;;;;;;2.97;2.43;;;;;;;17.78;58.06;97263.53;5041643;28;20428;-69
2023/09/20 05:40:52;;;;;;;5.60;3.53;;;;;;;17.98;57.71;97262.84;5030050;28;20195;-68
2023/09/20 05:43:18;;;;;;;7.23;2.90;;;;;;;18.11;57.63;97268.19;5034744;28;20425;-68
2023/09/20 05:45:43;;;;;;;3.60;2.63;;;;;;;18.26;57.34;97266.22;5014781;28;20962;-70
2023/09/20 05:48:12;;;;;;;4.70;3.67;;;;;;;18.33;57.63;97278.66;5035213;28;20187;-69
2023/09/20 05:50:41;;;;;;;5.80;3.10;;;;;;;18.40;57.52;97277.66;5022998;28;20195;-71
2023/09/20 05:53:07;;;;;;;4.37;3.00;;;;;;;18.50;57.65;97274.63;5045183;28;20462;-69
2023/09/20 05:55:40;;;;;;;4.10;2.47;;;;;;;18.62;57.35;97274.84;5041483;28;20449;-71
2023/09/20 05:58:06;;;;;;;3.37;2.97;;;;;;;18.62;56.99;97279.34;5038490;28;20437;-72
2023/09/20 06:00:33;;;;;;;4.00;2.10;;;;;;;18.66;56.71;97276.06;5029548;28;20441;-70
2023/09/20 06:02:59;;;;;;;5.27;2.40;;;;;;;18.88;56.42;97284.69;5038861;28;20794;-71
2023/09/20 06:05:25;;;;;;;3.37;2.20;;;;;;;19.01;55.85;97283.88;5031945;28;20450;-70
2023/09/20 06:07:53;;;;;;;4.07;2.20;;;;;;;19.17;55.70;97287.94;5031153;28;20192;-71
2023/09/20 06:10:22;;;;;;;6.57;2.47;;;;;;;19.38;55.45;97286.13;5033846;28;20430;-71
2023/09/20 06:12:47;;;;;;;18.33;2.43;;;;;;;19.54;54.65;97282.19;5024018;28;20469;-70
2023/09/20 06:15:13;;;;;;;13.87;2.10;;;;;;;19.71;54.51;97287.06;5042734;28;20907;-72
2023/09/20 06:17:39;;;;;;;9.40;2.20;;;;;;;19.83;54.58;97274.75;5038865;28;20369;-72
2023/09/20 06:20:08;;;;;;;2.57;2.00;;;;;;;19.93;54.53;97284.97;5038104;28;20206;-70
2023/09/20 06:22:34;;;;;;;6.93;2.37;;;;;;;20.07;54.13;97285.75;5041605;28;20215;-69
2023/09/20 06:25:01;;;;;;;4.50;2.33;;;;;;;20.13;53.78;97284.06;5035671;28;20804;-70
2023/09/20 06:27:30;;;;;;;4.03;2.40;;;;;;;20.30;53.23;97276.41;5031894;28;20207;-71
2023/09/20 06:29:56;;;;;;;8.87;2.20;;;;;;;20.44;52.71;97269.16;5041457;28;20425;-70
2023/09/20 06:32:22;;;;;;;5.70;2.00;;;;;;;20.62;53.18;97266.59;5029389;28;20504;-71
2023/09/20 06:34:47;;;;;;;3.07;1.77;;;;;;;20.81;52.57;97258.69;5029570;28;20223;-72
2023/09/20 06:37:12;;;;;;;3.10;2.30;;;;;;;21.04;52.19;97258.13;5039413;28;20195;-72
2023/09/20 06:39:38;;;;;;;3.37;2.17;;;;;;;21.24;51.85;97257.09;5036115;28;20211;-72
2023/09/20 06:42:04;;;;;;;6.70;2.00;;;;;;;21.42;51.17;97264.34;5041877;28;20190;-73
2023/09/20 06:44:38;;;;;;;7.10;2.17;;;;;;;21.40;50.18;97261.88;5032799;28;20203;-73
2023/09/20 06:47:05;;;;;;;2.33;1.87;;;;;;;21.32;49.53;97260.31;5013886;28;20505;-72
2023/09/20 06:49:31;;;;;;;2.40;1.77;;;;;;;21.21;49.03;97253.03;5032489;28;20438;-72
2023/09/20 06:51:57;;;;;;;2.90;2.03;;;;;;;21.30;49.25;97249.06;5039172;28;20440;-71
2023/09/20 06:54:27;;;;;;;5.20;2.23;;;;;;;21.27;49.04;97248.69;5034763;28;20212;-69
2023/09/20 06:56:53;;;;;;;2.90;1.60;;;;;;;21.15;49.03;97243.28;5036079;28;20434;-70
2023/09/20 06:59:18;;;;;;;1.90;1.50;;;;;;;21.16;49.09;97252.91;5042996;28;20922;-73
2023/09/20 07:01:44;;;;;;;6.23;1.80;;;;;;;21.20;49.61;97246.06;5038449;28;20234;-73
2023/09/20 07:04:10;;;;;;;2.00;1.80;;;;;;;21.25;49.69;97243.59;5039287;28;20195;-71
2023/09/20 07:06:37;;;;;;;5.00;1.87;;;;;;;21.26;50.33;97231.88;5043698;28;20192;-71
2023/09/20 07:09:05;;;;;;;2.80;1.80;;;;;;;21.42;50.30;97237.69;5035425;28;20449;-71
2023/09/20 07:11:31;;;;;;;4.80;2.30;;;;;;;21.65;50.32;97226.38;5044092;28;20430;-72
2023/09/20 07:13:59;;;;;;;4.17;1.83;;;;;;;21.84;48.79;97229.03;5040483;28;20830;-72
2023/09/20 07:16:25;;;;;;;3.53;1.83;;;;;;;22.12;48.88;97220.44;5040849;28;20442;-72
2023/09/20 07:18:51;;;;;;;3.67;1.60;;;;;;;22.35;47.90;97232.25;5042462;28;20438;-73
2023/09/20 07:21:16;;;;;;;3.83;1.93;;;;;;;22.64;47.92;97232.47;5044260;28;20191;-72
2023/09/20 07:23:42;;;;;;;7.23;1.70;;;;;;;22.84;47.39;97227.63;5040658;28;20202;-72
2023/09/20 07:26:08;;;;;;;3.53;1.63;;;;;;;22.72;46.43;97229.47;5040013;28;20218;-70
2023/09/20 07:28:36;;;;;;;4.03;1.90;;;;;;;22.73;46.49;97231.09;5043419;28;20192;-72
2023/09/20 07:31:03;;;;;;;5.03;1.93;;;;;;;22.55;46.46;97223.97;5036208;28;20206;-71
2023/09/20 07:33:30;;;;;;;5.60;1.73;;;;;;;22.50;46.96;97227.34;5042522;28;20556;-72
2023/09/20 07:36:00;;;;;;;11.13;1.77;;;;;;;22.30;46.76;97222.25;4998923;28;20470;-71
2023/09/20 07:38:26;;;;;;;2.30;1.87;;;;;;;22.30;46.89;97221.44;5039009;28;20442;-74
2023/09/20 07:40:51;;;;;;;2.30;1.70;;;;;;;22.32;47.11;97230.03;5031515;28;20445;-72
2023/09/20 07:43:18;;;;;;;5.03;2.00;;;;;;;22.35;47.41;97219.72;5032446;28;20191;-71
2023/09/20 07:45:44;;;;;;;3.53;1.93;;;;;;;22.31;46.99;97217.72;5022184;28;20200;-70
2023/09/20 07:48:21;;;;;;;2.33;1.70;;;;;;;22.59;47.30;97214.47;5027598;28;20796;-72
2023/09/20 07:50:51;;;;;;;5.63;2.13;;;;;;;22.71;46.45;97222.47;5046649;28;20426;-73
2023/09/20 07:53:18;;;;;;;1.73;1.63;;;;;;;23.00;46.19;97211.94;5025173;28;20558;-72
2023/09/20 07:56:05;;;;;;;2.43;1.70;;;;;;;23.31;45.60;97205.47;5042126;28;20463;-71
2023/09/20 07:58:40;;;;;;;3.27;1.60;;;;;;;23.66;44.58;97200.25;5033367;28;20464;-71
2023/09/20 08:01:12;;;;;;;1.97;1.60;;;;;;;23.82;44.33;97204.88;5034446;28;20512;-73
2023/09/20 08:03:58;;;;;;;3.23;1.40;;;;;;;24.16;43.87;97194.28;5041576;28;21127;-73
2023/09/20 08:06:29;;;;;;;3.40;2.07;;;;;;;24.48;43.68;97185.75;5035715;28;20929;-74
2023/09/20 08:08:56;;;;;;;2.10;1.47;;;;;;;24.52;42.35;97188.75;5041585;28;20446;-73
2023/09/20 08:11:21;;;;;;;4.73;1.77;;;;;;;24.58;42.12;97181.59;5048655;28;20922;-72
2023/09/20 08:13:52;;;;;;;2.80;2.07;;;;;;;24.75;42.29;97174.41;5034125;28;20470;-71
2023/09/20 08:16:18;;;;;;;3.73;1.60;;;;;;;24.96;41.62;97180.88;5049229;28;20230;-72
2023/09/20 08:21:29;;;;;;;1.63;1.40;;;;;;;25.00;41.08;97175.84;5031935;28;20443;-72
2023/09/20 08:59:52;;;;;;;8.00;1.77;;;;;;;27.10;35.67;97201.69;5005204;28;20434;-71
2023/09/20 09:02:17;;;;;;;3.50;1.60;;;;;;;27.36;35.70;97210.69;5018043;28;20433;-72
2023/09/20 09:04:44;;;;;;;4.80;1.60;;;;;;;27.47;35.10;97202.72;5035248;28;20532;-72
2023/09/20 09:07:11;;;;;;;2.30;1.67;;;;;;;27.58;35.11;97209.78;5017616;28;20279;-71
2023/09/20 09:09:38;;;;;;;2.20;1.60;;;;;;;27.58;34.20;97209.78;5018937;28;20513;-71
2023/09/20 09:12:03;;;;;;;2.67;1.50;;;;;;;27.73;34.40;97212.50;5039684;28;20444;-72
2023/09/20 09:14:29;;;;;;;2.17;1.37;;;;;;;27.88;33.81;97195.59;5041938;28;20548;-72
2023/09/20 09:17:03;;;;;;;2.70;1.63;;;;;;;27.86;34.03;97197.75;5000861;28;20257;-72
2023/09/20 09:19:29;;;;;;;4.43;2.10;;;;;;;27.84;34.19;97191.03;5031556;28;20179;-72
2023/09/20 09:21:55;;;;;;;2.93;1.90;;;;;;;27.75;34.75;97183.44;5013502;28;20480;-72
2023/09/20 09:24:21;;;;;;;2.07;1.73;;;;;;;27.98;34.10;97184.03;5022504;28;20211;-71
2023/09/20 09:26:46;;;;;;;2.73;1.30;;;;;;;28.31;33.75;97191.94;5031625;28;20427;-72
2023/09/20 09:29:18;;;;;;;3.50;1.77;;;;;;;28.27;33.38;97183.59;5018174;28;20218;-73
2023/09/20 09:31:50;;;;;;;4.20;1.50;;;;;;;28.43;33.52;97186.31;5024811;28;20191;-72
2023/09/20 09:34:19;;;;;;;2.37;1.80;;;;;;;28.69;32.76;97184.41;4988518;28;20454;-72
2023/09/20 09:36:45;;;;;;;3.67;1.90;;;;;;;28.83;33.02;97183.88;5006183;28;20449;-72
2023/09/20 09:39:14;;;;;;;3.20;1.80;;;;;;;29.15;31.33;97171.97;5016670;28;20439;-73
2023/09/20 09:41:43;;;;;;;4.60;4.20;;;;;;;29.41;30.69;97170.03;5045081;28;21132;-72
2023/09/20 09:44:10;;;;;;;3.37;2.00;;;;;;;29.07;29.72;97167.94;5037156;28;20799;-73
2023/09/20 09:46:38;;;;;;;7.00;1.90;;;;;;;29.21;30.13;97168.16;5022921;28;20440;-71
2023/09/20 09:49:10;;;;;;;2.37;2.10;;;;;;;29.54;29.30;97160.53;5016215;28;20445;-72
2023/09/20 09:51:40;;;;;;;5.43;1.83;;;;;;;29.53;28.92;97165.09;5046365;28;20517;-73
2023/09/20 09:54:06;;;;;;;3.33;1.67;;;;;;;29.67;29.17;97157.22;5012898;28;20727;-72
2023/09/20 09:56:31;;;;;;;8.67;2.63;;;;;;;29.67;27.65;97164.50;5031010;28;21025;-72
2023/09/20 09:58:56;;;;;;;2.93;2.00;;;;;;;29.66;28.15;97157.50;5027714;28;20468;-72
2023/09/20 10:01:22;;;;;;;2.80;2.10;;;;;;;29.76;27.70;97146.63;5026980;28;20206;-72
2023/09/20 10:03:50;;;;;;;2.37;1.73;;;;;;;29.85;27.74;97144.97;4999701;28;20717;-73
2023/09/20 10:06:23;;;;;;;3.07;1.83;;;;;;;30.05;27.71;97127.03;5014098;28;20234;-73
2023/09/20 10:08:56;;;;;;;2.00;1.80;;;;;;;30.21;27.63;97133.13;5020075;28;20952;-73
2023/09/20 10:11:22;;;;;;;3.23;1.80;;;;;;;30.28;26.98;97122.84;5040537;28;20435;-71
2023/09/20 10:13:48;;;;;;;3.50;2.20;;;;;;;30.26;27.65;97126.88;5021294;28;20462;-71
2023/09/20 10:16:16;;;;;;;3.03;1.80;;;;;;;29.85;27.14;97136.88;5016590;28;20774;-72
2023/09/20 10:18:52;;;;;;;6.10;1.87;;;;;;;30.06;26.92;97136.78;5012709;28;20184;-72
2023/09/20 10:21:23;;;;;;;4.50;2.00;;;;;;;30.22;27.89;97128.56;4996269;28;20430;-71
2023/09/20 10:23:59;;;;;;;2.33;1.60;;;;;;;29.25;28.51;97134.97;5029762;28;20521;-72
2023/09/20 10:26:26;;;;;;;3.33;1.80;;;;;;;30.06;28.65;97127.84;5035044;28;20809;-72
2023/09/20 10:28:53;;;;;;;3.90;1.87;;;;;;;30.67;27.07;97114.97;5033944;28;20466;-70
2023/09/20 10:31:19;;;;;;;2.23;2.03;;;;;;;30.99;26.54;97122.47;5010322;28;20535;-71
2023/09/20 10:33:51;;;;;;;3.67;2.20;;;;;;;31.27;25.85;97117.28;5012630;28;20466;-72
2023/09/20 10:36:30;;;;;;;2.70;2.00;;;;;;;31.39;26.27;97108.75;5016889;28;20821;-72
2023/09/20 10:39:12;;;;;;;2.30;2.10;;;;;;;31.64;24.85;97106.81;5041903;28;20958;-72
2023/09/20 10:41:39;;;;;;;4.17;2.37;;;;;;;31.04;24.74;97106.16;5031305;28;20458;-73
2023/09/20 10:44:05;;;;;;;8.30;2.53;;;;;;;30.77;24.93;97104.81;5033392;28;20442;-71
2023/09/20 10:46:35;;;;;;;2.03;1.87;;;;;;;30.80;25.10;97096.16;5029713;28;20492;-72
2023/09/20 10:49:00;;;;;;;4.03;2.23;;;;;;;30.88;25.93;97099.31;5018502;28;20442;-72
2023/09/20 10:51:43;;;;;;;2.40;2.20;;;;;;;30.77;25.11;97094.00;5018980;28;20836;-73
2023/09/20 10:54:25;;;;;;;3.23;1.90;;;;;;;31.04;25.13;97081.03;5005067;28;20218;-73
2023/09/20 10:56:53;;;;;;;2.07;1.80;;;;;;;31.35;25.52;97081.47;5036859;28;21020;-72
2023/09/20 10:59:25;;;;;;;2.80;2.47;;;;;;;31.64;24.08;97077.03;5041239;28;20430;-72
2023/09/20 11:02:01;;;;;;;3.27;2.27;;;;;;;31.50;23.65;97071.53;5038612;28;20437;-74
2023/09/20 11:04:28;;;;;;;4.30;2.70;;;;;;;31.61;24.42;97077.59;5022168;28;20488;-75
2023/09/20 11:06:54;;;;;;;4.13;2.03;;;;;;;31.69;23.82;97071.56;5016095;28;20462;-73
2023/09/20 11:09:23;;;;;;;4.03;2.33;;;;;;;31.82;24.01;97067.31;5021912;28;20619;-72
2023/09/20 11:11:49;;;;;;;2.40;2.20;;;;;;;32.04;23.92;97064.00;5044311;28;20426;-73
2023/09/20 11:14:15;;;;;;;2.33;2.13;;;;;;;31.80;23.91;97061.38;5050932;28;20555;-72
2023/09/20 11:16:42;;;;;;;2.80;1.90;;;;;;;31.74;24.84;97059.84;4979783;28;21062;-73
2023/09/20 11:19:12;;;;;;;2.53;1.90;;;;;;;31.93;24.87;97059.84;5005473;28;20215;-73
2023/09/20 11:21:41;;;;;;;2.43;2.23;;;;;;;31.75;24.88;97056.06;4974192;28;20600;-72
2023/09/20 11:24:14;;;;;;;7.33;2.30;;;;;;;31.90;25.70;97057.72;4964958;28;20429;-72
2023/09/20 11:26:40;;;;;;;2.37;2.17;;;;;;;31.96;25.33;97051.91;5017573;28;20430;-73
2023/09/20 11:29:09;;;;;;;1.87;1.77;;;;;;;31.89;25.01;97050.69;4991461;28;20442;-73
2023/09/20 11:31:35;;;;;;;3.73;2.10;;;;;;;31.68;24.69;97051.75;5013891;28;20572;-72
2023/09/20 11:34:03;;;;;;;2.10;1.90;;;;;;;31.91;25.09;97049.28;5034537;28;20466;-72
2023/09/20 11:36:29;;;;;;;2.17;1.83;;;;;;;32.06;24.25;97044.72;5024909;28;20568;-71
2023/09/20 11:38:55;;;;;;;12.33;1.80;;;;;;;32.15;24.96;97037.50;5023162;28;20426;-72
2023/09/20 11:41:22;;;;;;;8.10;1.73;;;;;;;32.34;24.49;97034.75;5049115;28;20543;-72
2023/09/20 11:43:47;;;;;;;9.80;2.10;;;;;;;32.27;25.44;97031.66;5028037;28;20405;-72
2023/09/20 11:46:13;;;;;;;3.80;1.97;;;;;;;32.57;25.96;97040.34;5050859;28;20457;-73
2023/09/20 11:48:38;;;;;;;2.47;1.50;;;;;;;32.60;25.49;97026.97;5049880;28;20735;-73
2023/09/20 11:51:07;;;;;;;1.60;1.40;;;;;;;32.71;25.67;97029.50;5040958;28;20191;-72
2023/09/20 11:53:33;;;;;;;2.23;1.70;;;;;;;32.99;25.81;97016.72;5029894;28;20216;-70
2023/09/20 11:56:00;;;;;;;9.33;2.60;;;;;;;33.11;25.73;97016.22;5032673;28;20443;-72
2023/09/20 11:58:32;;;;;;;3.20;1.50;;;;;;;33.15;25.42;97009.06;5038959;28;20191;-73
2023/09/20 12:00:57;;;;;;;4.07;1.50;;;;;;;32.71;26.02;97015.94;5045327;28;20430;-72
2023/09/20 12:03:23;;;;;;;6.30;1.70;;;;;;;32.70;25.99;97011.59;5042356;28;20433;-72
2023/09/20 12:05:48;;;;;;;4.47;1.30;;;;;;;32.67;26.08;97002.16;5037163;28;20265;-71
2023/09/20 12:08:14;;;;;;;6.70;2.80;;;;;;;32.84;26.05;97007.00;5031743;28;20217;-72
2023/09/20 12:10:40;;;;;;;4.20;1.53;;;;;;;32.80;26.00;97003.28;5041888;28;20691;-71
2023/09/20 12:13:06;;;;;;;4.03;1.43;;;;;;;32.81;25.81;96994.03;5022309;28;20214;-73